Fifth Ward, Louisiana
Current Conditions -  °F | °C
As of 11:53 PM on Wednesday 28 Jan 2015 (Local Time) from KESF Reporting Station
Clear Clear  
Wind Chill: 50°   Ceiling: Unl
Heat Index: 50°   Visibility: 10mi
Dew Point: 43°   Wind: 0mph
Humidity: 77%   Direction: NA
Pressure: 30.2"   Gusts: NA
Location:  31.175°N, 91.9985°W
Report Text: KESF 290553Z AUTO 00000KT 10SM CLR 10/06 A3020 RMK AO2 SLP225 T01000061 10194 20100 402330022 53006
Loading
Personal Weather Stations






























Interactive Weather Map New forecast layout! Learn more

10-Day Weather Forecast

Advertisements
Track Severe Weather on mobile